sensor_id;sensor_type;location;lat;lon;timestamp;pressure;altitude;pressure_sealevel;temperature;humidity
71642;BME280;60657;50.122;14.468;2023-09-18T00:02:53;98081.10892983743;;;22.452506294346534;58.8794537270161
71642;BME280;60657;50.122;14.468;2023-09-18T00:06:09;98083.7948214623;;;22.43114366369116;59.079728389410235
71642;BME280;60657;50.122;14.468;2023-09-18T00:09:24;98075.5909843202;;;22.324330510414285;59.58899824521248
71642;BME280;60657;50.122;14.468;2023-09-18T00:12:40;98081.10841735681;;;22.233539330128934;59.91706721599145
71642;BME280;60657;50.122;14.468;2023-09-18T00:15:56;98079.54145398682;;;22.225528343633172;60.08873121232929
71642;BME280;60657;50.122;14.468;2023-09-18T00:19:12;98070.96664708073;;;22.206836041809723;60.23559929808499
71642;BME280;60657;50.122;14.468;2023-09-18T00:22:28;98075.47304603674;;;21.82764934767681;61.441062027924005
71642;BME280;60657;50.122;14.468;2023-09-18T00:25:44;98074.11801329882;;;21.7154955367361;61.847333485923556
71642;BME280;60657;50.122;14.468;2023-09-18T00:28:59;98078.71967176869;;;21.603341725795374;62.224994277866784
71642;BME280;60657;50.122;14.468;2023-09-18T00:32:15;98075.17899072374;;;21.4591439688716;62.795300221255815
71642;BME280;60657;50.122;14.468;2023-09-18T00:35:31;98076.58019987986;;;21.68612191958495;62.1658655680171
71642;BME280;60657;50.122;14.468;2023-09-18T00:38:47;98080.7144266135;;;21.552605477988863;62.36232547493705
71642;BME280;60657;50.122;14.468;2023-09-18T00:42:03;98080.32499013851;;;21.33096818493935;62.94407568474861
71642;BME280;60657;50.122;14.468;2023-09-18T00:45:21;98080.73596812865;;;21.23216601815824;63.18822003509575
71642;BME280;60657;50.122;14.468;2023-09-18T00:48:37;98076.49392155574;;;21.200122072175176;63.432364385442895
71642;BME280;60657;50.122;14.468;2023-09-18T00:51:53;98079.36586335489;;;21.093308918898302;63.45906767376211
71642;BME280;60657;50.122;14.468;2023-09-18T00:55:09;98069.91709872424;;;21.02655069810025;63.52773327229724
71642;BME280;60657;50.122;14.468;2023-09-18T00:58:26;98065.74412430271;;;20.986495765621427;63.64217593652246
71642;BME280;60657;50.122;14.468;2023-09-18T01:01:44;98057.39846643679;;;20.914396887159526;63.956893263141836
71642;BME280;60657;50.122;14.468;2023-09-18T01:05:01;98052.2871199598;;;20.64469367513543;64.63401235980774
71642;BME280;60657;50.122;14.468;2023-09-18T01:08:20;98046.6033575726;;;20.556572823682004;64.94110017547875
71642;BME280;60657;50.122;14.468;2023-09-18T01:11:36;98050.47105864879;;;20.47646295872434;65.35881589990082
71642;BME280;60657;50.122;14.468;2023-09-18T01:15:05;98045.86310318948;;;20.369649805447466;65.78988326848248
71642;BME280;60657;50.122;14.468;2023-09-18T01:18:27;98040.93473123077;;;20.332265201800567;65.8776226443885
71642;BME280;60657;50.122;14.468;2023-09-18T01:21:44;98035.56566276158;;;20.25482566567483;66.3640039673457
71642;BME280;60657;50.122;14.468;2023-09-18T01:25:00;98041.81866814716;;;20.134660868238342;66.86755168993668
71642;BME280;60657;50.122;14.468;2023-09-18T01:28:18;98034.92159561634;;;19.97444113832303;67.70489051651789
71642;BME280;60657;50.122;14.468;2023-09-18T01:31:34;98029.1089534689;;;19.93705653467613;68.00625619897765
71642;BME280;60657;50.122;14.468;2023-09-18T01:34:59;98022.84384175096;;;19.90501258869307;68.3972686350805
71642;BME280;60657;50.122;14.468;2023-09-18T01:38:20;98017.57916857325;;;19.723430228122382;69.04577706569009
71642;BME280;60657;50.122;14.468;2023-09-18T01:41:38;98021.74775397258;;;19.720759899290456;69.26703288319219
71642;BME280;60657;50.122;14.468;2023-09-18T01:45:00;98023.22833431183;;;19.549858854047457;69.98229953459983
71642;BME280;60657;50.122;14.468;2023-09-18T01:48:19;97998.57694029676;;;19.402990768291758;70.62317845426108
71642;BME280;60657;50.122;14.468;2023-09-18T01:51:35;97993.99974624785;;;19.314869916838333;71.18394750896468
71642;BME280;60657;50.122;14.468;2023-09-18T01:54:51;97995.8766029357;;;19.229419394216833;71.59594110017548
71642;BME280;60657;50.122;14.468;2023-09-18T01:58:07;98003.3888468488;;;19.218738078889146;71.64171816586557
71642;BME280;60657;50.122;14.468;2023-09-18T02:01:23;97995.9927939372;;;19.168001831082634;71.94117647058823
71642;BME280;60657;50.122;14.468;2023-09-18T02:04:38;97990.18251968602;;;19.181353475242233;72.0937666895552
71642;BME280;60657;50.122;14.468;2023-09-18T02:07:54;97994.5228252627;;;19.125276569771884;72.26352330815595
71642;BME280;60657;50.122;14.468;2023-09-18T02:11:10;97992.41480551567;;;19.213397421225295;72.06134126802472
71642;BME280;60657;50.122;14.468;2023-09-18T02:14:26;97993.17804669375;;;19.21606775005722;72.14335851071947
71642;BME280;60657;50.122;14.468;2023-09-18T02:17:42;97993.5275048207;;;19.13061722743572;72.44281681544213
71642;BME280;60657;50.122;14.468;2023-09-18T02:20:57;97985.65576138053;;;19.039826047150385;72.84336614023042
71642;BME280;60657;50.122;14.468;2023-09-18T02:24:13;97973.97911738644;;;19.01312275883116;73.02456702525369
71642;BME280;60657;50.122;14.468;2023-09-18T02:27:29;97966.46896996963;;;18.983749141680015;73.20576791027695
71642;BME280;60657;50.122;14.468;2023-09-18T02:30:45;97956.95240180175;;;18.88494697489891;73.50904097047379
71642;BME280;60657;50.122;14.468;2023-09-18T02:34:01;97952.07922974949;;;18.794155794613566;73.80468451972229
71642;BME280;60657;50.122;14.468;2023-09-18T02:37:17;97951.85148733163;;;18.804837109941253;74.01831082627604
71642;BME280;60657;50.122;14.468;2023-09-18T02:40:32;97950.51235077363;;;18.911650263218128;73.73220416571297
71642;BME280;60657;50.122;14.468;2023-09-18T02:43:48;97946.57790231545;;;18.879606317235066;73.8466468299382
71642;BME280;60657;50.122;14.468;2023-09-18T02:47:06;97945.22154246626;;;18.802166781109328;74.13466086823834
71642;BME280;60657;50.122;14.468;2023-09-18T02:50:22;97939.98041503773;;;18.615243762874798;74.85374227512017
71642;BME280;60657;50.122;14.468;2023-09-18T02:53:38;97929.89561257948;;;18.596551461051348;75.0540169375143
71642;BME280;60657;50.122;14.468;2023-09-18T02:56:54;97926.21204510314;;;18.700694285496297;74.60769054703593
71642;BME280;60657;50.122;14.468;2023-09-18T03:00:10;97927.31782465632;;;18.69001297016861;74.75455863279164
71642;BME280;60657;50.122;14.468;2023-09-18T03:03:26;97925.7878116959;;;18.62058442053864;74.84229800869764
71642;BME280;60657;50.122;14.468;2023-09-18T03:06:42;97931.11051192449;;;18.537804226749067;75.27336537727932
71642;BME280;60657;50.122;14.468;2023-09-18T03:09:58;97927.87976839198;;;18.465705348287173;75.56519417105363
71642;BME280;60657;50.122;14.468;2023-09-18T03:13:14;97927.48733736886;;;18.56984817273213;75.22377355611505
71642;BME280;60657;50.122;14.468;2023-09-18T03:16:30;97924.48164332878;;;18.497749294270236;75.56900892652781
71642;BME280;60657;50.122;14.468;2023-09-18T03:19:47;97918.64747658714;;;18.67132066834516;75.04829480430304
71642;BME280;60657;50.122;14.468;2023-09-18T03:23:03;97911.67385491125;;;18.71404592965591;74.90333409628442
71642;BME280;60657;50.122;14.468;2023-09-18T03:26:19;97912.89758999711;;;18.633936064698254;74.91668574044404
71642;BME280;60657;50.122;14.468;2023-09-18T03:29:35;97919.04602982437;;;18.564507515068286;75.17036697947661
71642;BME280;60657;50.122;14.468;2023-09-18T03:32:51;97914.54039747194;;;18.652628366521704;75.19134813458457
71642;BME280;60657;50.122;14.468;2023-09-18T03:36:07;97909.61201649171;;;18.64461738002594;75.03303578240634
71642;BME280;60657;50.122;14.468;2023-09-18T03:39:23;97908.08330707533;;;18.575188830395973;75.04066529335469
71642;BME280;60657;50.122;14.468;2023-09-18T03:42:39;97906.15480877497;;;18.65529869535363;74.99679560540169
71642;BME280;60657;50.122;14.468;2023-09-18T03:45:55;97892.37916803702;;;18.719386587319754;74.61722743572138
71642;BME280;60657;50.122;14.468;2023-09-18T03:49:17;97888.79288654061;;;18.633936064698254;74.94911116197451
71642;BME280;60657;50.122;14.468;2023-09-18T03:52:33;97891.02650150028;;;18.63126573586633;74.9529259174487
71642;BME280;60657;50.122;14.468;2023-09-18T03:55:50;97885.7932621648;;;18.497749294270236;75.26192111085679
71642;BME280;60657;50.122;14.468;2023-09-18T03:59:05;97879.81651889304;;;18.516441596093692;75.34393835355154
71642;BME280;60657;50.122;14.468;2023-09-18T04:02:21;97889.24870133956;;;18.481727321278704;75.45647364003968
71642;BME280;60657;50.122;14.468;2023-09-18T04:05:40;97890.23953278961;;;18.465705348287173;75.3057907988098
71642;BME280;60657;50.122;14.468;2023-09-18T04:08:56;97888.93330547043;;;18.385595483329517;75.68345159075304
71642;BME280;60657;50.122;14.468;2023-09-18T04:12:12;97880.04434339903;;;18.479056992446786;75.52513923857481
71642;BME280;60657;50.122;14.468;2023-09-18T04:15:28;97877.37810443083;;;18.30548561837186;75.87991149767299
71642;BME280;60657;50.122;14.468;2023-09-18T04:18:45;97880.06466858626;;;18.260090028229193;76.20607309071488
71642;BME280;60657;50.122;14.468;2023-09-18T04:22:01;97869.66213328732;;;18.166628519111924;76.58182650492104
71642;BME280;60657;50.122;14.468;2023-09-18T04:25:17;97883.35104466046;;;18.02510109102007;77.15403982604715
71642;BME280;60657;50.122;14.468;2023-09-18T04:28:33;97864.62392486373;;;18.06782635233082;77.09491111619745
71642;BME280;60657;50.122;14.468;2023-09-18T04:31:49;97870.31850315278;;;18.09987029831388;76.73823147936217
71642;BME280;60657;50.122;14.468;2023-09-18T04:35:05;97873.82411125027;;;18.073167009994663;76.81834134431983
71642;BME280;60657;50.122;14.468;2023-09-18T04:38:21;97871.19500286719;;;18.07583733882658;76.80117494468604
71642;BME280;60657;50.122;14.468;2023-09-18T04:41:37;97873.65921443613;;;18.137254901960787;76.6161593041886
71642;BME280;60657;50.122;14.468;2023-09-18T04:44:53;97869.44193830842;;;18.1265735866331;76.66575112535287
71642;BME280;60657;50.122;14.468;2023-09-18T04:48:09;97864.12544074311;;;18.147936217288475;76.28618295567254
71642;BME280;60657;50.122;14.468;2023-09-18T04:51:25;97854.81206480566;;;18.190661478599225;76.40634775310903
71642;BME280;60657;50.122;14.468;2023-09-18T04:54:41;97860.44795786386;;;18.249408712901506;76.12405584802015
71642;BME280;60657;50.122;14.468;2023-09-18T04:57:57;97863.73278041299;;;18.2734416723888;75.97718776226444
71642;BME280;60657;50.122;14.468;2023-09-18T05:01:14;97878.64284461593;;;18.171969176775768;76.31479362172885
71642;BME280;60657;50.122;14.468;2023-09-18T05:04:29;97875.45555866076;;;18.318837262531474;75.70634012359808
71642;BME280;60657;50.122;14.468;2023-09-18T05:07:45;97875.56775931237;;;18.30548561837186;75.90470740825513
71642;BME280;60657;50.122;14.468;2023-09-18T05:11:01;97876.05135870607;;;18.406958113984892;75.68345159075304
71642;BME280;60657;50.122;14.468;2023-09-18T05:14:17;97878.62815550558;;;18.449683375295642;75.31914244296941
71642;BME280;60657;50.122;14.468;2023-09-18T05:17:41;97869.70653854756;;;18.35622186617838;75.67009994659342
71642;BME280;60657;50.122;14.468;2023-09-18T05:21:00;97862.03393394902;;;18.3588921950103;75.6433966582742
71642;BME280;60657;50.122;14.468;2023-09-18T05:24:17;97851.55459376764;;;18.50041962310216;75.58808270389868
71642;BME280;60657;50.122;14.468;2023-09-18T05:27:33;97850.38805677884;;;18.56183718623636;75.07499809262227
71642;BME280;60657;50.122;14.468;2023-09-18T05:30:49;97844.00034925474;;;18.682001983672848;74.78507667658504
71642;BME280;60657;50.122;14.468;2023-09-18T05:34:04;97847.21263380701;;;19.01846341649501;74.00686655985352
71642;BME280;60657;50.122;14.468;2023-09-18T05:37:20;97824.92192255806;;;19.31754024567026;72.85481040665293
71642;BME280;60657;50.122;14.468;2023-09-18T05:40:36;97822.58908794631;;;19.47775997558557;72.26543068589304
71642;BME280;60657;50.122;14.468;2023-09-18T05:43:52;97815.38964839204;;;19.640650034332793;71.93545433737697
71642;BME280;60657;50.122;14.468;2023-09-18T05:47:08;97819.03808919471;;;19.73411154345007;71.81719691767758
71642;BME280;60657;50.122;14.468;2023-09-18T05:50:24;97812.3155181538;;;19.88899061570153;70.99893186846722
71642;BME280;60657;50.122;14.468;2023-09-18T05:53:40;97813.6898312105;;;19.94773785000382;70.83108262760356
71642;BME280;60657;50.122;14.468;2023-09-18T05:56:58;97817.73561832662;;;20.19340810254063;70.14061188677806
71642;BME280;60657;50.122;14.468;2023-09-18T06:00:14;97810.29055163995;;;20.161364156557568;70.07385366598001
71642;BME280;60657;50.122;14.468;2023-09-18T06:03:30;97814.04887098464;;;20.32959487296864;69.92507820248721
71642;BME280;60657;50.122;14.468;2023-09-18T06:06:45;97800.45615611096;;;20.34027618829633;69.93652246890974
71642;BME280;60657;50.122;14.468;2023-09-18T06:10:01;97792.65029935868;;;20.513847562371254;69.34523537041275
71642;BME280;60657;50.122;14.468;2023-09-18T06:13:17;97786.88595705143;;;20.623331044480054;69.28419928282597
71642;BME280;60657;50.122;14.468;2023-09-18T06:16:33;97778.122411074;;;20.740825513084616;68.75776302738994
71642;BME280;60657;50.122;14.468;2023-09-18T06:19:49;97792.43206026561;;;20.938429846646827;68.277103837644
71642;BME280;60657;50.122;14.468;2023-09-18T06:23:05;97788.13155064969;;;21.106660563057915;67.59807736324102
71642;BME280;60657;50.122;14.468;2023-09-18T06:26:21;97777.63238423201;;;21.424429694056613;66.75310902571145
71642;BME280;60657;50.122;14.468;2023-09-18T06:29:37;97763.36439455418;;;21.6674296177615;66.13321126115817
71642;BME280;60657;50.122;14.468;2023-09-18T06:32:53;97770.95201416205;;;22.086671244373235;65.29396505683985
71642;BME280;60657;50.122;14.468;2023-09-18T06:36:08;97764.76236076094;;;22.313649195086597;64.25062943465323
71642;BME280;60657;50.122;14.468;2023-09-18T06:39:24;97765.82001136834;;;22.735561150530245;63.73182269016556
71642;BME280;60657;50.122;14.468;2023-09-18T06:42:40;97765.77241568603;;;23.01861600671397;62.581673914702066
71642;BME280;60657;50.122;14.468;2023-09-18T06:45:58;97760.44120534325;;;23.06134126802472;62.20210574502174
71642;BME280;60657;50.122;14.468;2023-09-18T06:49:14;97762.97902257727;;;23.090714885175856;62.59502555886168
71642;BME280;60657;50.122;14.468;2023-09-18T06:52:29;97763.45419545463;;;23.18951705195697;62.30510414282445
71642;BME280;60657;50.122;14.468;2023-09-18T06:55:45;97760.22670316562;;;23.30701152056153;62.2230869001297
71642;BME280;60657;50.122;14.468;2023-09-18T06:59:01;97757.37193161628;;;23.472571908140694;61.557412069886325
71642;BME280;60657;50.122;14.468;2023-09-18T07:02:27;97752.64416781375;;;23.39246204318303;61.46776531624323
71642;BME280;60657;50.122;14.468;2023-09-18T07:05:43;97749.41982276649;;;23.712901503013654;60.92988479438468
71642;BME280;60657;50.122;14.468;2023-09-18T07:08:59;97747.88684826561;;;23.822384985122454;60.66094453345541
71642;BME280;60657;50.122;14.468;2023-09-18T07:12:17;97754.51650551731;;;23.993286030365454;60.49500267032883
71642;BME280;60657;50.122;14.468;2023-09-18T07:15:33;97755.23863476557;;;24.102769512474254;59.167467765316246
71642;BME280;60657;50.122;14.468;2023-09-18T07:18:49;97760.73718447787;;;24.51667048142214;58.412146181429776
71642;BME280;60657;50.122;14.468;2023-09-18T07:22:05;97752.44949580904;;;24.60746166170749;57.792248416876475
71642;BME280;60657;50.122;14.468;2023-09-18T07:25:21;97745.93529423683;;;24.81040665293355;57.78461890592813
71642;BME280;60657;50.122;14.468;2023-09-18T07:28:37;97750.29752786519;;;25.074769207293812;56.07370107576104
71642;BME280;60657;50.122;14.468;2023-09-18T07:31:53;97753.82399406486;;;25.381857022964823;54.88540474555581
71642;BME280;60657;50.122;14.468;2023-09-18T07:35:09;97749.96775287615;;;25.277714198519874;55.60448615243763
71642;BME280;60657;50.122;14.468;2023-09-18T07:38:25;97741.75475651567;;;25.60616464484626;54.67750057221332
71642;BME280;60657;50.122;14.468;2023-09-18T07:41:41;97744.39804504554;;;26.00404364080262;54.069047074082555
71642;BME280;60657;50.122;14.468;2023-09-18T07:44:56;97735.42914497873;;;25.907911802853434;53.5902952620737
71642;BME280;60657;50.122;14.468;2023-09-18T07:48:12;97733.69527938002;;;26.02006561379416;53.496833752956434
71642;BME280;60657;50.122;14.468;2023-09-18T07:51:28;97726.8721124456;;;25.72098878461891;54.02517738612955
71642;BME280;60657;50.122;14.468;2023-09-18T07:54:44;97720.13407480936;;;25.98001068131532;53.67040512703136
71642;BME280;60657;50.122;14.468;2023-09-18T07:58:00;97725.13611214964;;;26.447318226901658;52.546959639887085
71642;BME280;60657;50.122;14.468;2023-09-18T08:01:15;97722.54117517889;;;26.27641718165866;52.47257190814069
71642;BME280;60657;50.122;14.468;2023-09-18T08:04:32;97711.1306935902;;;26.142900740062558;53.348058289463644
71642;BME280;60657;50.122;14.468;2023-09-18T08:07:47;97700.79595872316;;;26.158922713054096;52.68047608148318
71642;BME280;60657;50.122;14.468;2023-09-18T08:11:06;97700.34515411672;;;26.64492256046387;52.127336537727935
71642;BME280;60657;50.122;14.468;2023-09-18T08:14:23;97700.83384115416;;;26.87724116884108;51.87556267643244
71642;BME280;60657;50.122;14.468;2023-09-18T08:17:39;97695.24091497982;;;26.83451590753033;51.742046234836344
71642;BME280;60657;50.122;14.468;2023-09-18T08:20:55;97699.25583621374;;;26.98138399328603;51.866025787747006
71642;BME280;60657;50.122;14.468;2023-09-18T08:24:11;97696.81253069446;;;26.88792248416877;51.770656900892654
71642;BME280;60657;50.122;14.468;2023-09-18T08:27:27;97694.91473045875;;;26.79179064621958;52.06439307240406
71642;BME280;60657;50.122;14.468;2023-09-18T08:30:43;97693.2357102513;;;27.29915312428473;51.31860837720302
71642;BME280;60657;50.122;14.468;2023-09-18T08:33:58;97695.07091840246;;;27.761120012207215;50.73876554512856
71642;BME280;60657;50.122;14.468;2023-09-18T08:37:14;97682.76967477918;;;27.9186694132906;49.47035934996567
71642;BME280;60657;50.122;14.468;2023-09-18T08:40:30;97692.65079220133;;;28.1990539406424;48.961089494163424
71642;BME280;60657;50.122;14.468;2023-09-18T08:43:46;97689.62516856886;;;28.132295719844365;49.51613641565576
71642;BME280;60657;50.122;14.468;2023-09-18T08:47:06;97683.59857536972;;;28.6263065537499;48.875257495994504
71642;BME280;60657;50.122;14.468;2023-09-18T08:50:27;97679.24889399097;;;29.058899824521248;48.06843671320669
71642;BME280;60657;50.122;14.468;2023-09-18T08:53:45;97674.51223162058;;;29.165712977798123;47.26543068589304
71642;BME280;60657;50.122;14.468;2023-09-18T08:57:01;97680.94550321276;;;29.165712977798123;46.553978789959565
71642;BME280;60657;50.122;14.468;2023-09-18T09:00:20;97662.94428709435;;;29.600976577401383;46.81719691767758
71642;BME280;60657;50.122;14.468;2023-09-18T09:03:38;97659.69499196252;;;29.59296559090562;45.65178912031739
71642;BME280;60657;50.122;14.468;2023-09-18T09:06:55;97653.82565769224;;;29.48081177996491;46.18204013122759
71642;BME280;60657;50.122;14.468;2023-09-18T09:10:12;97656.852635293;;;29.774547951476308;45.6060120546273
71642;BME280;60657;50.122;14.468;2023-09-18T09:13:28;97644.33213903793;;;29.790569924467846;45.098649576562146
71642;BME280;60657;50.122;14.468;2023-09-18T09:16:46;97631.32486055544;;;29.998855573357744;45.02044708934157
71642;BME280;60657;50.122;14.468;2023-09-18T09:20:07;97624.81842284693;;;30.295262073701082;42.65529869535363
71642;BME280;60657;50.122;14.468;2023-09-18T09:23:24;97622.16624867808;;;30.241855497062645;41.7607385366598
71642;BME280;60657;50.122;14.468;2023-09-18T09:26:41;97615.78643201182;;;29.534218356603347;42.53513389791714
71642;BME280;60657;50.122;14.468;2023-09-18T09:29:58;97628.82909806885;;;29.20042725261311;43.47547112230106
71642;BME280;60657;50.122;14.468;2023-09-18T09:33:14;97633.00207931516;;;28.666361486228737;44.20790417334249
71642;BME280;60657;50.122;14.468;2023-09-18T09:36:30;97616.33563090347;;;28.976119630731674;43.3076218814374
71642;BME280;60657;50.122;14.468;2023-09-18T09:39:47;97596.88977306138;;;29.336614023041122;42.92805371175707
71642;BME280;60657;50.122;14.468;2023-09-18T09:43:04;97600.18727195042;;;29.57427328908217;42.25284199282826
71642;BME280;60657;50.122;14.468;2023-09-18T09:46:25;97591.55353850081;;;29.662394140535596;42.781185626001374
71642;BME280;60657;50.122;14.468;2023-09-18T09:49:45;97584.81532018173;;;30.284580758373394;42.36919203479057
71642;BME280;60657;50.122;14.468;2023-09-18T09:53:05;97587.45612442197;;;30.13771267261768;41.718776226443886
71642;BME280;60657;50.122;14.468;2023-09-18T09:56:20;97585.4148499879;;;29.89738307774472;42.42641336690318
71642;BME280;60657;50.122;14.468;2023-09-18T09:59:36;97585.15307461793;;;29.870679789425495;42.25474937056535
71642;BME280;60657;50.122;14.468;2023-09-18T10:02:54;97574.51923908378;;;30.09498741130693;42.12314030670634
71642;BME280;60657;50.122;14.468;2023-09-18T10:06:13;97574.49870893126;;;29.990844586861982;42.20134279392691
71642;BME280;60657;50.122;14.468;2023-09-18T10:09:29;97567.3835289966;;;30.297932402532993;41.92858777752346
71642;BME280;60657;50.122;14.468;2023-09-18T10:12:49;97565.90632411806;;;30.45281147478447;41.642481116960404
71642;BME280;60657;50.122;14.468;2023-09-18T10:16:06;97564.42690461845;;;30.431448844129093;41.7759975585565
71642;BME280;60657;50.122;14.468;2023-09-18T10:19:25;97566.05626353464;;;30.629053177691304;41.735942626077666
71642;BME280;60657;50.122;14.468;2023-09-18T10:22:48;97562.52525440608;;;30.970855268177303;40.74029144731823
71642;BME280;60657;50.122;14.468;2023-09-18T10:26:08;97564.46541060126;;;31.4221408407721;40.158541237506675
71642;BME280;60657;50.122;14.468;2023-09-18T10:29:29;97551.51108702678;;;31.277943083848328;39.57488364995804
71642;BME280;60657;50.122;14.468;2023-09-18T10:32:47;97555.31668914082;;;31.440833142595565;40.07080186160067
71642;BME280;60657;50.122;14.468;2023-09-18T10:36:05;97548.60817929625;;;32.0309758144503;39.149538414587624
71642;BME280;60657;50.122;14.468;2023-09-18T10:39:24;97533.64727470075;;;32.351415274280924;37.936446173800256
71642;BME280;60657;50.122;14.468;2023-09-18T10:42:42;97533.5010167923;;;32.436865796902424;37.38902876325628
71642;BME280;60657;50.122;14.468;2023-09-18T10:45:58;97529.2811392913;;;32.89349202716106;36.82253757534142
71642;BME280;60657;50.122;14.468;2023-09-18T10:49:14;97529.65805320209;;;32.922865644312196;36.62417029068437
71642;BME280;60657;50.122;14.468;2023-09-18T10:52:31;97521.21567662215;;;32.88281071183337;36.509727626459146
71642;BME280;60657;50.122;14.468;2023-09-18T10:55:48;97519.64190838959;;;33.221942473487445;36.452506294346534
71642;BME280;60657;50.122;14.468;2023-09-18T10:59:05;97501.73952002049;;;33.49164568551156;36.32852674143587
71642;BME280;60657;50.122;14.468;2023-09-18T11:02:22;97511.678974131;;;33.52903028915847;36.572671091783015
71642;BME280;60657;50.122;14.468;2023-09-18T11:05:38;97505.70588598923;;;34.05775539787899;36.02906843671321
71642;BME280;60657;50.122;14.468;2023-09-18T11:08:59;97506.73084952238;;;34.16990920881972;35.74486915388724
71642;BME280;60657;50.122;14.468;2023-09-18T11:12:17;97498.53298934289;;;34.38086518654154;36.67376211184863
71642;BME280;60657;50.122;14.468;2023-09-18T11:15:33;97501.26405887498;;;34.20195315480278;34.15793087663081
71642;BME280;60657;50.122;14.468;2023-09-18T11:18:51;97495.95793454307;;;34.51705195696955;34.26092927443351
71642;BME280;60657;50.122;14.468;2023-09-18T11:22:08;97490.62589524197;;;34.762722209506364;34.10261692225529
71642;BME280;60657;50.122;14.468;2023-09-18T11:25:40;97494.81433310123;;;33.62516212710766;35.75631342030976
71642;BME280;60657;50.122;14.468;2023-09-18T11:28:58;97489.95714249718;;;33.89753566796368;35.14023041123064
71642;BME280;60657;50.122;14.468;2023-09-18T11:32:15;97496.42949267905;;;34.09781033035783;34.99717708094911
71642;BME280;60657;50.122;14.468;2023-09-18T11:35:53;97495.63786248959;;;34.503700312809954;34.1598382543679
71642;BME280;60657;50.122;14.468;2023-09-18T11:39:09;97498.3790206051;;;34.57045853360799;34.89799343862058
71642;BME280;60657;50.122;14.468;2023-09-18T11:42:26;97494.83414599599;;;34.792095826657516;34.38681620508125
71642;BME280;60657;50.122;14.468;2023-09-18T11:45:42;97489.662433385;;;34.77073319600214;34.129320210574505
71642;BME280;60657;50.122;14.468;2023-09-18T11:48:58;97498.34823279825;;;35.005722133211265;35.45685511558709
71642;BME280;60657;50.122;14.468;2023-09-18T11:52:15;97485.50570016481;;;35.371557183184564;33.789806973373004
71642;BME280;60657;50.122;14.468;2023-09-18T11:55:32;97490.35633224747;;;35.64660105287251;33.59334706645304